sensor_id;sensor_type;location;lat;lon;timestamp;P1;P2;P0
49708;PMS5003;35601;55.902;13.606;2024-03-07T00:01:38;19;14;
49708;PMS5003;35601;55.902;13.606;2024-03-07T00:04:03;21;15;
49708;PMS5003;35601;55.902;13.606;2024-03-07T00:06:29;20;18;
49708;PMS5003;35601;55.902;13.606;2024-03-07T00:08:54;12;12;
49708;PMS5003;35601;55.902;13.606;2024-03-07T00:11:19;21;16;
49708;PMS5003;35601;55.902;13.606;2024-03-07T00:13:44;14;13;
49708;PMS5003;35601;55.902;13.606;2024-03-07T00:16:10;15;12;
49708;PMS5003;35601;55.902;13.606;2024-03-07T00:18:35;13;11;
49708;PMS5003;35601;55.902;13.606;2024-03-07T00:21:01;18;14;
49708;PMS5003;35601;55.902;13.606;2024-03-07T00:23:27;15;14;
49708;PMS5003;35601;55.902;13.606;2024-03-07T00:25:51;13;12;
49708;PMS5003;35601;55.902;13.606;2024-03-07T00:28:17;15;14;
49708;PMS5003;35601;55.902;13.606;2024-03-07T00:30:42;20;15;
49708;PMS5003;35601;55.902;13.606;2024-03-07T00:33:07;12;12;
49708;PMS5003;35601;55.902;13.606;2024-03-07T00:35:33;18;12;
49708;PMS5003;35601;55.902;13.606;2024-03-07T00:37:58;16;12;
49708;PMS5003;35601;55.902;13.606;2024-03-07T00:40:24;20;18;
49708;PMS5003;35601;55.902;13.606;2024-03-07T00:42:49;19;16;
49708;PMS5003;35601;55.902;13.606;2024-03-07T00:45:15;23;20;
49708;PMS5003;35601;55.902;13.606;2024-03-07T00:47:40;19;16;
49708;PMS5003;35601;55.902;13.606;2024-03-07T00:50:06;22;20;
49708;PMS5003;35601;55.902;13.606;2024-03-07T00:52:31;18;14;
49708;PMS5003;35601;55.902;13.606;2024-03-07T00:54:56;14;13;
49708;PMS5003;35601;55.902;13.606;2024-03-07T00:57:21;19;18;
49708;PMS5003;35601;55.902;13.606;2024-03-07T00:59:46;16;15;
49708;PMS5003;35601;55.902;13.606;2024-03-07T01:02:12;12;12;
49708;PMS5003;35601;55.902;13.606;2024-03-07T01:04:38;18;14;
49708;PMS5003;35601;55.902;13.606;2024-03-07T01:07:03;24;21;
49708;PMS5003;35601;55.902;13.606;2024-03-07T01:09:28;17;13;
49708;PMS5003;35601;55.902;13.606;2024-03-07T01:11:54;19;16;
49708;PMS5003;35601;55.902;13.606;2024-03-07T01:14:19;20;19;
49708;PMS5003;35601;55.902;13.606;2024-03-07T01:16:44;19;14;
49708;PMS5003;35601;55.902;13.606;2024-03-07T01:19:09;20;15;
49708;PMS5003;35601;55.902;13.606;2024-03-07T01:21:35;20;20;
49708;PMS5003;35601;55.902;13.606;2024-03-07T01:24:00;19;19;
49708;PMS5003;35601;55.902;13.606;2024-03-07T01:26:27;12;11;
49708;PMS5003;35601;55.902;13.606;2024-03-07T01:28:51;17;15;
49708;PMS5003;35601;55.902;13.606;2024-03-07T01:31:16;23;21;
49708;PMS5003;35601;55.902;13.606;2024-03-07T01:33:42;20;18;
49708;PMS5003;35601;55.902;13.606;2024-03-07T01:36:07;20;19;
49708;PMS5003;35601;55.902;13.606;2024-03-07T01:38:33;19;15;
49708;PMS5003;35601;55.902;13.606;2024-03-07T01:40:58;16;14;
49708;PMS5003;35601;55.902;13.606;2024-03-07T01:43:23;15;15;
49708;PMS5003;35601;55.902;13.606;2024-03-07T01:45:49;16;15;
49708;PMS5003;35601;55.902;13.606;2024-03-07T01:48:16;21;17;
49708;PMS5003;35601;55.902;13.606;2024-03-07T01:50:40;26;22;
49708;PMS5003;35601;55.902;13.606;2024-03-07T01:53:06;26;19;
49708;PMS5003;35601;55.902;13.606;2024-03-07T01:55:31;23;19;
49708;PMS5003;35601;55.902;13.606;2024-03-07T01:57:56;20;16;
49708;PMS5003;35601;55.902;13.606;2024-03-07T02:00:21;21;16;
49708;PMS5003;35601;55.902;13.606;2024-03-07T02:02:47;16;15;
49708;PMS5003;35601;55.902;13.606;2024-03-07T02:05:12;22;18;
49708;PMS5003;35601;55.902;13.606;2024-03-07T02:07:38;21;20;
49708;PMS5003;35601;55.902;13.606;2024-03-07T02:10:03;21;20;
49708;PMS5003;35601;55.902;13.606;2024-03-07T02:12:28;19;14;
49708;PMS5003;35601;55.902;13.606;2024-03-07T02:14:53;19;16;
49708;PMS5003;35601;55.902;13.606;2024-03-07T02:17:19;16;15;
49708;PMS5003;35601;55.902;13.606;2024-03-07T02:19:45;20;16;
49708;PMS5003;35601;55.902;13.606;2024-03-07T02:22:10;17;15;
49708;PMS5003;35601;55.902;13.606;2024-03-07T02:24:36;25;21;
49708;PMS5003;35601;55.902;13.606;2024-03-07T02:27:01;17;16;
49708;PMS5003;35601;55.902;13.606;2024-03-07T02:29:26;16;16;
49708;PMS5003;35601;55.902;13.606;2024-03-07T02:31:52;18;14;
49708;PMS5003;35601;55.902;13.606;2024-03-07T02:34:17;20;16;
49708;PMS5003;35601;55.902;13.606;2024-03-07T02:36:42;20;16;
49708;PMS5003;35601;55.902;13.606;2024-03-07T02:39:07;20;18;
49708;PMS5003;35601;55.902;13.606;2024-03-07T02:41:33;23;21;
49708;PMS5003;35601;55.902;13.606;2024-03-07T02:43:58;16;15;
49708;PMS5003;35601;55.902;13.606;2024-03-07T02:46:23;17;14;
49708;PMS5003;35601;55.902;13.606;2024-03-07T02:48:49;19;15;
49708;PMS5003;35601;55.902;13.606;2024-03-07T02:51:14;27;19;
49708;PMS5003;35601;55.902;13.606;2024-03-07T02:53:39;25;20;
49708;PMS5003;35601;55.902;13.606;2024-03-07T02:56:05;16;15;
49708;PMS5003;35601;55.902;13.606;2024-03-07T02:58:31;22;19;
49708;PMS5003;35601;55.902;13.606;2024-03-07T03:00:57;14;13;
49708;PMS5003;35601;55.902;13.606;2024-03-07T03:03:21;15;14;
49708;PMS5003;35601;55.902;13.606;2024-03-07T03:05:46;15;14;
49708;PMS5003;35601;55.902;13.606;2024-03-07T03:08:12;14;14;
49708;PMS5003;35601;55.902;13.606;2024-03-07T03:10:37;21;15;
49708;PMS5003;35601;55.902;13.606;2024-03-07T03:13:02;20;18;
49708;PMS5003;35601;55.902;13.606;2024-03-07T03:15:27;24;20;
49708;PMS5003;35601;55.902;13.606;2024-03-07T03:17:53;18;14;
49708;PMS5003;35601;55.902;13.606;2024-03-07T03:20:18;19;15;
49708;PMS5003;35601;55.902;13.606;2024-03-07T03:22:43;16;16;
49708;PMS5003;35601;55.902;13.606;2024-03-07T03:25:09;19;16;
49708;PMS5003;35601;55.902;13.606;2024-03-07T03:27:34;20;19;
49708;PMS5003;35601;55.902;13.606;2024-03-07T03:29:59;19;18;
49708;PMS5003;35601;55.902;13.606;2024-03-07T03:32:25;15;14;
49708;PMS5003;35601;55.902;13.606;2024-03-07T03:34:50;23;19;
49708;PMS5003;35601;55.902;13.606;2024-03-07T03:37:15;20;18;
49708;PMS5003;35601;55.902;13.606;2024-03-07T03:39:41;21;19;
49708;PMS5003;35601;55.902;13.606;2024-03-07T03:42:06;21;17;
49708;PMS5003;35601;55.902;13.606;2024-03-07T03:44:31;22;19;
49708;PMS5003;35601;55.902;13.606;2024-03-07T03:46:56;24;18;
49708;PMS5003;35601;55.902;13.606;2024-03-07T03:49:22;18;15;
49708;PMS5003;35601;55.902;13.606;2024-03-07T03:51:47;24;22;
49708;PMS5003;35601;55.902;13.606;2024-03-07T03:54:12;22;20;
49708;PMS5003;35601;55.902;13.606;2024-03-07T03:56:38;20;15;
49708;PMS5003;35601;55.902;13.606;2024-03-07T03:59:03;23;22;
49708;PMS5003;35601;55.902;13.606;2024-03-07T04:01:28;26;19;
49708;PMS5003;35601;55.902;13.606;2024-03-07T04:03:53;21;17;
49708;PMS5003;35601;55.902;13.606;2024-03-07T04:06:19;21;18;
49708;PMS5003;35601;55.902;13.606;2024-03-07T04:08:44;22;19;
49708;PMS5003;35601;55.902;13.606;2024-03-07T04:11:10;24;22;
49708;PMS5003;35601;55.902;13.606;2024-03-07T04:13:35;21;15;
49708;PMS5003;35601;55.902;13.606;2024-03-07T04:16:00;18;16;
49708;PMS5003;35601;55.902;13.606;2024-03-07T04:18:26;21;17;
49708;PMS5003;35601;55.902;13.606;2024-03-07T04:20:51;20;20;
49708;PMS5003;35601;55.902;13.606;2024-03-07T04:23:16;15;15;
49708;PMS5003;35601;55.902;13.606;2024-03-07T04:25:41;15;13;
49708;PMS5003;35601;55.902;13.606;2024-03-07T04:28:07;18;15;
49708;PMS5003;35601;55.902;13.606;2024-03-07T04:30:32;20;15;
49708;PMS5003;35601;55.902;13.606;2024-03-07T04:32:57;14;14;
49708;PMS5003;35601;55.902;13.606;2024-03-07T04:35:23;19;17;
49708;PMS5003;35601;55.902;13.606;2024-03-07T04:37:47;17;17;
49708;PMS5003;35601;55.902;13.606;2024-03-07T04:40:13;15;13;
49708;PMS5003;35601;55.902;13.606;2024-03-07T04:42:38;15;14;
49708;PMS5003;35601;55.902;13.606;2024-03-07T04:45:04;17;13;
49708;PMS5003;35601;55.902;13.606;2024-03-07T04:47:30;19;14;
49708;PMS5003;35601;55.902;13.606;2024-03-07T04:49:54;17;14;
49708;PMS5003;35601;55.902;13.606;2024-03-07T04:52:20;17;15;
49708;PMS5003;35601;55.902;13.606;2024-03-07T04:54:45;16;15;
49708;PMS5003;35601;55.902;13.606;2024-03-07T04:57:11;13;12;
49708;PMS5003;35601;55.902;13.606;2024-03-07T04:59:36;15;14;
49708;PMS5003;35601;55.902;13.606;2024-03-07T05:02:01;20;18;
49708;PMS5003;35601;55.902;13.606;2024-03-07T05:04:27;16;13;
49708;PMS5003;35601;55.902;13.606;2024-03-07T05:06:52;13;11;
49708;PMS5003;35601;55.902;13.606;2024-03-07T05:09:17;16;16;
49708;PMS5003;35601;55.902;13.606;2024-03-07T05:11:43;13;11;
49708;PMS5003;35601;55.902;13.606;2024-03-07T05:14:08;14;12;
49708;PMS5003;35601;55.902;13.606;2024-03-07T05:16:34;14;12;
49708;PMS5003;35601;55.902;13.606;2024-03-07T05:18:59;19;12;
49708;PMS5003;35601;55.902;13.606;2024-03-07T05:21:24;16;10;
49708;PMS5003;35601;55.902;13.606;2024-03-07T05:23:50;13;11;
49708;PMS5003;35601;55.902;13.606;2024-03-07T05:26:16;14;13;
49708;PMS5003;35601;55.902;13.606;2024-03-07T05:28:41;18;13;
49708;PMS5003;35601;55.902;13.606;2024-03-07T05:31:06;12;10;
49708;PMS5003;35601;55.902;13.606;2024-03-07T05:33:32;12;10;
49708;PMS5003;35601;55.902;13.606;2024-03-07T05:35:57;12;10;
49708;PMS5003;35601;55.902;13.606;2024-03-07T05:38:22;10;8;
49708;PMS5003;35601;55.902;13.606;2024-03-07T05:40:48;24;18;
49708;PMS5003;35601;55.902;13.606;2024-03-07T05:43:13;18;12;
49708;PMS5003;35601;55.902;13.606;2024-03-07T05:45:38;13;12;
49708;PMS5003;35601;55.902;13.606;2024-03-07T05:48:14;14;12;
49708;PMS5003;35601;55.902;13.606;2024-03-07T05:50:29;9;9;
49708;PMS5003;35601;55.902;13.606;2024-03-07T05:52:54;14;10;
49708;PMS5003;35601;55.902;13.606;2024-03-07T05:55:20;13;11;
49708;PMS5003;35601;55.902;13.606;2024-03-07T05:57:45;12;10;
49708;PMS5003;35601;55.902;13.606;2024-03-07T06:00:11;14;10;
49708;PMS5003;35601;55.902;13.606;2024-03-07T06:02:36;10;9;
49708;PMS5003;35601;55.902;13.606;2024-03-07T06:05:01;10;9;
49708;PMS5003;35601;55.902;13.606;2024-03-07T06:07:27;13;12;
49708;PMS5003;35601;55.902;13.606;2024-03-07T06:09:53;12;9;
49708;PMS5003;35601;55.902;13.606;2024-03-07T06:12:18;11;11;
49708;PMS5003;35601;55.902;13.606;2024-03-07T06:14:43;12;12;
49708;PMS5003;35601;55.902;13.606;2024-03-07T06:17:08;9;9;
49708;PMS5003;35601;55.902;13.606;2024-03-07T06:19:33;17;14;
49708;PMS5003;35601;55.902;13.606;2024-03-07T06:21:59;14;12;
49708;PMS5003;35601;55.902;13.606;2024-03-07T06:24:24;20;17;
49708;PMS5003;35601;55.902;13.606;2024-03-07T06:26:50;19;17;
49708;PMS5003;35601;55.902;13.606;2024-03-07T06:29:16;29;21;
49708;PMS5003;35601;55.902;13.606;2024-03-07T06:31:41;18;16;
49708;PMS5003;35601;55.902;13.606;2024-03-07T06:34:06;19;17;
49708;PMS5003;35601;55.902;13.606;2024-03-07T06:36:31;20;17;
49708;PMS5003;35601;55.902;13.606;2024-03-07T06:38:56;13;12;
49708;PMS5003;35601;55.902;13.606;2024-03-07T06:41:22;17;11;
49708;PMS5003;35601;55.902;13.606;2024-03-07T06:43:47;11;11;
49708;PMS5003;35601;55.902;13.606;2024-03-07T06:46:13;11;11;
49708;PMS5003;35601;55.902;13.606;2024-03-07T06:48:38;14;13;
49708;PMS5003;35601;55.902;13.606;2024-03-07T06:51:04;13;10;
49708;PMS5003;35601;55.902;13.606;2024-03-07T06:53:29;14;14;
49708;PMS5003;35601;55.902;13.606;2024-03-07T06:55:54;12;10;
49708;PMS5003;35601;55.902;13.606;2024-03-07T06:58:19;26;22;
49708;PMS5003;35601;55.902;13.606;2024-03-07T07:00:45;23;20;
49708;PMS5003;35601;55.902;13.606;2024-03-07T07:03:10;21;18;
49708;PMS5003;35601;55.902;13.606;2024-03-07T07:05:35;13;11;
49708;PMS5003;35601;55.902;13.606;2024-03-07T07:08:01;15;13;
49708;PMS5003;35601;55.902;13.606;2024-03-07T07:10:26;15;13;
49708;PMS5003;35601;55.902;13.606;2024-03-07T07:12:52;9;6;
49708;PMS5003;35601;55.902;13.606;2024-03-07T07:15:17;7;7;
49708;PMS5003;35601;55.902;13.606;2024-03-07T07:17:43;10;6;
49708;PMS5003;35601;55.902;13.606;2024-03-07T07:20:08;10;8;
49708;PMS5003;35601;55.902;13.606;2024-03-07T07:22:33;11;7;
49708;PMS5003;35601;55.902;13.606;2024-03-07T07:24:58;10;7;
49708;PMS5003;35601;55.902;13.606;2024-03-07T07:27:24;5;4;
49708;PMS5003;35601;55.902;13.606;2024-03-07T07:29:49;6;6;
49708;PMS5003;35601;55.902;13.606;2024-03-07T07:32:14;10;6;
49708;PMS5003;35601;55.902;13.606;2024-03-07T07:34:39;9;6;
49708;PMS5003;35601;55.902;13.606;2024-03-07T07:37:04;6;6;
49708;PMS5003;35601;55.902;13.606;2024-03-07T07:39:30;11;10;
49708;PMS5003;35601;55.902;13.606;2024-03-07T07:41:55;11;7;
49708;PMS5003;35601;55.902;13.606;2024-03-07T07:44:21;12;11;
49708;PMS5003;35601;55.902;13.606;2024-03-07T07:46:46;9;7;
49708;PMS5003;35601;55.902;13.606;2024-03-07T07:49:12;7;7;
49708;PMS5003;35601;55.902;13.606;2024-03-07T07:51:37;12;10;
49708;PMS5003;35601;55.902;13.606;2024-03-07T07:54:02;12;7;
49708;PMS5003;35601;55.902;13.606;2024-03-07T07:56:27;11;7;
49708;PMS5003;35601;55.902;13.606;2024-03-07T07:58:53;13;11;
49708;PMS5003;35601;55.902;13.606;2024-03-07T08:01:18;13;10;
49708;PMS5003;35601;55.902;13.606;2024-03-07T08:03:44;10;8;
49708;PMS5003;35601;55.902;13.606;2024-03-07T08:06:09;6;6;
49708;PMS5003;35601;55.902;13.606;2024-03-07T08:08:34;14;11;
49708;PMS5003;35601;55.902;13.606;2024-03-07T08:11:00;15;11;
49708;PMS5003;35601;55.902;13.606;2024-03-07T08:13:25;15;10;
49708;PMS5003;35601;55.902;13.606;2024-03-07T08:15:51;8;8;
49708;PMS5003;35601;55.902;13.606;2024-03-07T08:18:16;14;11;
49708;PMS5003;35601;55.902;13.606;2024-03-07T08:20:41;11;11;
49708;PMS5003;35601;55.902;13.606;2024-03-07T08:23:06;15;12;
49708;PMS5003;35601;55.902;13.606;2024-03-07T08:25:32;15;11;
49708;PMS5003;35601;55.902;13.606;2024-03-07T08:27:57;10;10;
49708;PMS5003;35601;55.902;13.606;2024-03-07T08:30:23;12;11;
49708;PMS5003;35601;55.902;13.606;2024-03-07T08:32:48;10;10;
49708;PMS5003;35601;55.902;13.606;2024-03-07T08:35:13;10;10;
49708;PMS5003;35601;55.902;13.606;2024-03-07T08:37:39;13;10;
49708;PMS5003;35601;55.902;13.606;2024-03-07T08:40:04;14;11;
49708;PMS5003;35601;55.902;13.606;2024-03-07T08:42:29;16;10;
49708;PMS5003;35601;55.902;13.606;2024-03-07T08:44:55;17;13;
49708;PMS5003;35601;55.902;13.606;2024-03-07T08:47:20;13;12;
49708;PMS5003;35601;55.902;13.606;2024-03-07T08:49:45;12;12;
49708;PMS5003;35601;55.902;13.606;2024-03-07T08:52:10;15;11;
49708;PMS5003;35601;55.902;13.606;2024-03-07T08:54:36;13;10;
49708;PMS5003;35601;55.902;13.606;2024-03-07T08:57:01;13;10;
49708;PMS5003;35601;55.902;13.606;2024-03-07T08:59:26;16;12;
49708;PMS5003;35601;55.902;13.606;2024-03-07T09:01:51;13;8;
49708;PMS5003;35601;55.902;13.606;2024-03-07T09:04:16;10;10;
49708;PMS5003;35601;55.902;13.606;2024-03-07T09:06:42;15;9;
49708;PMS5003;35601;55.902;13.606;2024-03-07T09:09:07;12;10;
49708;PMS5003;35601;55.902;13.606;2024-03-07T09:11:32;11;11;
49708;PMS5003;35601;55.902;13.606;2024-03-07T09:13:57;13;10;
49708;PMS5003;35601;55.902;13.606;2024-03-07T09:16:22;17;16;
49708;PMS5003;35601;55.902;13.606;2024-03-07T09:18:48;16;11;
49708;PMS5003;35601;55.902;13.606;2024-03-07T09:21:13;13;10;
49708;PMS5003;35601;55.902;13.606;2024-03-07T09:23:38;9;8;
49708;PMS5003;35601;55.902;13.606;2024-03-07T09:26:04;12;10;
49708;PMS5003;35601;55.902;13.606;2024-03-07T09:28:29;11;10;
49708;PMS5003;35601;55.902;13.606;2024-03-07T09:30:54;10;9;
49708;PMS5003;35601;55.902;13.606;2024-03-07T09:33:20;14;12;
49708;PMS5003;35601;55.902;13.606;2024-03-07T09:35:45;18;14;
49708;PMS5003;35601;55.902;13.606;2024-03-07T09:38:11;8;8;
49708;PMS5003;35601;55.902;13.606;2024-03-07T09:40:37;12;9;
49708;PMS5003;35601;55.902;13.606;2024-03-07T09:43:03;11;9;
49708;PMS5003;35601;55.902;13.606;2024-03-07T09:45:28;10;9;
49708;PMS5003;35601;55.902;13.606;2024-03-07T09:47:53;9;9;
49708;PMS5003;35601;55.902;13.606;2024-03-07T09:50:19;14;11;
49708;PMS5003;35601;55.902;13.606;2024-03-07T09:52:45;12;10;
49708;PMS5003;35601;55.902;13.606;2024-03-07T09:55:10;8;8;
49708;PMS5003;35601;55.902;13.606;2024-03-07T09:57:35;12;11;
49708;PMS5003;35601;55.902;13.606;2024-03-07T10:00:00;11;10;
49708;PMS5003;35601;55.902;13.606;2024-03-07T10:02:26;12;11;
49708;PMS5003;35601;55.902;13.606;2024-03-07T10:04:51;13;12;
49708;PMS5003;35601;55.902;13.606;2024-03-07T10:07:16;14;12;
49708;PMS5003;35601;55.902;13.606;2024-03-07T10:09:42;15;13;
49708;PMS5003;35601;55.902;13.606;2024-03-07T10:12:07;12;10;
49708;PMS5003;35601;55.902;13.606;2024-03-07T10:14:32;11;10;
49708;PMS5003;35601;55.902;13.606;2024-03-07T10:16:58;8;8;
49708;PMS5003;35601;55.902;13.606;2024-03-07T10:19:23;11;9;
49708;PMS5003;35601;55.902;13.606;2024-03-07T10:21:49;12;10;
49708;PMS5003;35601;55.902;13.606;2024-03-07T10:24:14;10;10;
49708;PMS5003;35601;55.902;13.606;2024-03-07T10:26:40;11;11;
49708;PMS5003;35601;55.902;13.606;2024-03-07T10:29:05;11;11;
49708;PMS5003;35601;55.902;13.606;2024-03-07T10:31:31;10;8;
49708;PMS5003;35601;55.902;13.606;2024-03-07T10:33:58;11;10;
49708;PMS5003;35601;55.902;13.606;2024-03-07T10:36:21;12;10;
49708;PMS5003;35601;55.902;13.606;2024-03-07T10:38:46;13;11;
49708;PMS5003;35601;55.902;13.606;2024-03-07T10:41:12;11;9;
49708;PMS5003;35601;55.902;13.606;2024-03-07T10:43:37;8;8;
49708;PMS5003;35601;55.902;13.606;2024-03-07T10:46:03;11;10;
49708;PMS5003;35601;55.902;13.606;2024-03-07T10:48:29;10;10;
49708;PMS5003;35601;55.902;13.606;2024-03-07T10:50:58;11;10;
49708;PMS5003;35601;55.902;13.606;2024-03-07T10:53:21;16;14;
49708;PMS5003;35601;55.902;13.606;2024-03-07T10:55:48;13;10;
49708;PMS5003;35601;55.902;13.606;2024-03-07T10:58:14;12;9;
49708;PMS5003;35601;55.902;13.606;2024-03-07T11:00:35;8;8;
49708;PMS5003;35601;55.902;13.606;2024-03-07T11:03:01;9;9;
49708;PMS5003;35601;55.902;13.606;2024-03-07T11:05:27;15;12;
49708;PMS5003;35601;55.902;13.606;2024-03-07T11:07:52;9;7;
49708;PMS5003;35601;55.902;13.606;2024-03-07T11:10:17;12;10;
49708;PMS5003;35601;55.902;13.606;2024-03-07T11:12:43;14;13;
49708;PMS5003;35601;55.902;13.606;2024-03-07T11:15:09;12;10;
49708;PMS5003;35601;55.902;13.606;2024-03-07T11:17:34;19;16;
49708;PMS5003;35601;55.902;13.606;2024-03-07T11:22:28;13;10;
49708;PMS5003;35601;55.902;13.606;2024-03-07T11:27:17;10;10;
49708;PMS5003;35601;55.902;13.606;2024-03-07T11:29:43;8;8;
49708;PMS5003;35601;55.902;13.606;2024-03-07T11:32:08;11;10;
49708;PMS5003;35601;55.902;13.606;2024-03-07T11:34:33;11;10;
49708;PMS5003;35601;55.902;13.606;2024-03-07T11:36:58;11;10;
49708;PMS5003;35601;55.902;13.606;2024-03-07T11:41:49;14;13;
49708;PMS5003;35601;55.902;13.606;2024-03-07T11:44:14;11;9;
49708;PMS5003;35601;55.902;13.606;2024-03-07T11:46:40;10;9;
49708;PMS5003;35601;55.902;13.606;2024-03-07T11:49:06;10;9;
49708;PMS5003;35601;55.902;13.606;2024-03-07T11:51:31;10;8;
49708;PMS5003;35601;55.902;13.606;2024-03-07T11:53:56;14;12;
49708;PMS5003;35601;55.902;13.606;2024-03-07T11:56:22;10;10;
49708;PMS5003;35601;55.902;13.606;2024-03-07T11:58:48;11;10;
49708;PMS5003;35601;55.902;13.606;2024-03-07T12:01:13;8;7;
49708;PMS5003;35601;55.902;13.606;2024-03-07T12:03:39;12;12;
49708;PMS5003;35601;55.902;13.606;2024-03-07T12:06:04;14;11;
49708;PMS5003;35601;55.902;13.606;2024-03-07T12:08:30;8;8;
49708;PMS5003;35601;55.902;13.606;2024-03-07T12:10:56;10;8;
49708;PMS5003;35601;55.902;13.606;2024-03-07T12:13:21;9;9;
49708;PMS5003;35601;55.902;13.606;2024-03-07T12:15:47;10;10;
49708;PMS5003;35601;55.902;13.606;2024-03-07T12:18:12;9;8;
49708;PMS5003;35601;55.902;13.606;2024-03-07T12:20:38;9;8;
49708;PMS5003;35601;55.902;13.606;2024-03-07T12:23:03;11;11;
49708;PMS5003;35601;55.902;13.606;2024-03-07T12:25:28;9;9;
49708;PMS5003;35601;55.902;13.606;2024-03-07T12:28:00;15;10;
49708;PMS5003;35601;55.902;13.606;2024-03-07T12:30:19;16;9;
49708;PMS5003;35601;55.902;13.606;2024-03-07T12:32:47;12;11;
49708;PMS5003;35601;55.902;13.606;2024-03-07T12:35:10;11;11;
49708;PMS5003;35601;55.902;13.606;2024-03-07T12:37:35;9;8;
49708;PMS5003;35601;55.902;13.606;2024-03-07T12:40:10;11;9;
49708;PMS5003;35601;55.902;13.606;2024-03-07T12:42:26;12;10;
49708;PMS5003;35601;55.902;13.606;2024-03-07T12:44:51;12;10;
49708;PMS5003;35601;55.902;13.606;2024-03-07T12:47:17;16;15;
49708;PMS5003;35601;55.902;13.606;2024-03-07T12:49:42;15;13;
49708;PMS5003;35601;55.902;13.606;2024-03-07T12:52:07;17;12;
49708;PMS5003;35601;55.902;13.606;2024-03-07T12:54:33;12;10;
49708;PMS5003;35601;55.902;13.606;2024-03-07T12:56:58;12;10;
49708;PMS5003;35601;55.902;13.606;2024-03-07T12:59:24;8;8;
49708;PMS5003;35601;55.902;13.606;2024-03-07T13:01:49;8;8;
49708;PMS5003;35601;55.902;13.606;2024-03-07T13:04:14;10;8;
49708;PMS5003;35601;55.902;13.606;2024-03-07T13:06:39;10;8;
49708;PMS5003;35601;55.902;13.606;2024-03-07T13:09:05;10;10;
49708;PMS5003;35601;55.902;13.606;2024-03-07T13:11:31;11;9;
49708;PMS5003;35601;55.902;13.606;2024-03-07T13:13:56;11;10;
49708;PMS5003;35601;55.902;13.606;2024-03-07T13:16:21;10;9;
49708;PMS5003;35601;55.902;13.606;2024-03-07T13:18:46;11;9;
49708;PMS5003;35601;55.902;13.606;2024-03-07T13:21:12;9;9;
49708;PMS5003;35601;55.902;13.606;2024-03-07T13:23:37;9;9;
49708;PMS5003;35601;55.902;13.606;2024-03-07T13:26:02;8;8;
49708;PMS5003;35601;55.902;13.606;2024-03-07T13:28:28;8;8;
49708;PMS5003;35601;55.902;13.606;2024-03-07T13:30:53;9;8;
49708;PMS5003;35601;55.902;13.606;2024-03-07T13:33:19;9;8;
49708;PMS5003;35601;55.902;13.606;2024-03-07T13:35:44;11;9;
49708;PMS5003;35601;55.902;13.606;2024-03-07T13:38:09;12;9;
49708;PMS5003;35601;55.902;13.606;2024-03-07T13:40:35;14;11;
49708;PMS5003;35601;55.902;13.606;2024-03-07T13:43:00;16;9;
49708;PMS5003;35601;55.902;13.606;2024-03-07T13:45:26;9;8;
49708;PMS5003;35601;55.902;13.606;2024-03-07T13:47:51;10;8;
49708;PMS5003;35601;55.902;13.606;2024-03-07T13:50:16;11;9;
49708;PMS5003;35601;55.902;13.606;2024-03-07T13:52:41;10;8;
49708;PMS5003;35601;55.902;13.606;2024-03-07T13:55:07;10;8;
49708;PMS5003;35601;55.902;13.606;2024-03-07T13:57:35;8;7;
49708;PMS5003;35601;55.902;13.606;2024-03-07T14:00:06;13;9;
49708;PMS5003;35601;55.902;13.606;2024-03-07T14:02:37;9;7;
49708;PMS5003;35601;55.902;13.606;2024-03-07T14:07:17;9;7;
49708;PMS5003;35601;55.902;13.606;2024-03-07T14:09:43;9;8;
49708;PMS5003;35601;55.902;13.606;2024-03-07T14:14:38;11;10;
49708;PMS5003;35601;55.902;13.606;2024-03-07T14:17:02;11;10;
49708;PMS5003;35601;55.902;13.606;2024-03-07T14:19:35;11;9;
49708;PMS5003;35601;55.902;13.606;2024-03-07T14:21:51;11;10;
49708;PMS5003;35601;55.902;13.606;2024-03-07T14:26:43;9;9;
49708;PMS5003;35601;55.902;13.606;2024-03-07T14:29:05;8;7;
49708;PMS5003;35601;55.902;13.606;2024-03-07T14:31:27;10;7;
49708;PMS5003;35601;55.902;13.606;2024-03-07T14:33:57;9;8;
49708;PMS5003;35601;55.902;13.606;2024-03-07T14:36:19;10;7;
49708;PMS5003;35601;55.902;13.606;2024-03-07T14:38:47;13;12;
49708;PMS5003;35601;55.902;13.606;2024-03-07T14:41:10;8;7;
49708;PMS5003;35601;55.902;13.606;2024-03-07T14:43:36;10;9;
49708;PMS5003;35601;55.902;13.606;2024-03-07T14:46:01;10;9;
49708;PMS5003;35601;55.902;13.606;2024-03-07T14:48:27;8;7;
49708;PMS5003;35601;55.902;13.606;2024-03-07T14:50:52;10;7;
49708;PMS5003;35601;55.902;13.606;2024-03-07T14:53:17;9;9;
49708;PMS5003;35601;55.902;13.606;2024-03-07T14:55:43;8;6;
49708;PMS5003;35601;55.902;13.606;2024-03-07T14:58:09;9;8;
49708;PMS5003;35601;55.902;13.606;2024-03-07T15:00:34;9;6;
49708;PMS5003;35601;55.902;13.606;2024-03-07T15:03:00;10;9;
49708;PMS5003;35601;55.902;13.606;2024-03-07T15:05:25;8;5;
49708;PMS5003;35601;55.902;13.606;2024-03-07T15:07:50;9;9;
49708;PMS5003;35601;55.902;13.606;2024-03-07T15:10:17;9;8;
49708;PMS5003;35601;55.902;13.606;2024-03-07T15:12:41;7;6;
49708;PMS5003;35601;55.902;13.606;2024-03-07T15:15:07;6;6;
49708;PMS5003;35601;55.902;13.606;2024-03-07T15:17:32;6;6;
49708;PMS5003;35601;55.902;13.606;2024-03-07T15:19:57;5;5;
49708;PMS5003;35601;55.902;13.606;2024-03-07T15:22:23;9;7;
49708;PMS5003;35601;55.902;13.606;2024-03-07T15:24:48;6;6;
49708;PMS5003;35601;55.902;13.606;2024-03-07T15:27:14;9;7;
49708;PMS5003;35601;55.902;13.606;2024-03-07T15:29:39;12;7;
49708;PMS5003;35601;55.902;13.606;2024-03-07T15:32:05;7;5;
49708;PMS5003;35601;55.902;13.606;2024-03-07T15:34:30;5;5;
49708;PMS5003;35601;55.902;13.606;2024-03-07T15:36:58;9;6;
49708;PMS5003;35601;55.902;13.606;2024-03-07T15:39:20;10;7;
49708;PMS5003;35601;55.902;13.606;2024-03-07T15:41:46;8;6;
49708;PMS5003;35601;55.902;13.606;2024-03-07T15:44:11;6;6;
49708;PMS5003;35601;55.902;13.606;2024-03-07T15:46:37;9;7;
49708;PMS5003;35601;55.902;13.606;2024-03-07T15:49:02;5;5;
49708;PMS5003;35601;55.902;13.606;2024-03-07T15:51:27;7;7;
49708;PMS5003;35601;55.902;13.606;2024-03-07T15:53:53;8;7;
49708;PMS5003;35601;55.902;13.606;2024-03-07T15:56:18;9;7;
49708;PMS5003;35601;55.902;13.606;2024-03-07T15:58:44;7;6;
49708;PMS5003;35601;55.902;13.606;2024-03-07T16:01:09;9;9;
49708;PMS5003;35601;55.902;13.606;2024-03-07T16:03:35;7;7;
49708;PMS5003;35601;55.902;13.606;2024-03-07T16:06:00;8;6;
49708;PMS5003;35601;55.902;13.606;2024-03-07T16:08:25;9;8;
49708;PMS5003;35601;55.902;13.606;2024-03-07T16:10:51;8;6;